createdAt,value
2018-01-15T00:01:53.250Z,19.30
2018-01-15T00:04:20.733Z,19.53
2018-01-15T00:06:48.967Z,21.77
2018-01-15T00:09:16.432Z,18.07
2018-01-15T00:11:43.901Z,20.60
2018-01-15T00:14:11.365Z,18.93
2018-01-15T00:16:39.605Z,19.77
2018-01-15T00:19:07.080Z,19.27
2018-01-15T00:21:34.550Z,18.87
2018-01-15T00:24:02.028Z,19.70
2018-01-15T00:26:30.265Z,19.90
2018-01-15T00:28:57.746Z,16.97
2018-01-15T00:31:25.226Z,15.87
2018-01-15T00:33:52.707Z,18.27
2018-01-15T00:36:20.170Z,18.30
2018-01-15T00:38:47.650Z,19.87
2018-01-15T00:41:15.124Z,17.00
2018-01-15T00:43:42.607Z,22.00
2018-01-15T00:46:10.837Z,18.90
2018-01-15T00:48:38.320Z,17.40
2018-01-15T00:51:05.778Z,17.50
2018-01-15T00:53:33.244Z,16.10
2018-01-15T00:56:00.714Z,18.93
2018-01-15T00:58:28.962Z,19.20
2018-01-15T01:00:56.429Z,20.83
2018-01-15T01:03:23.909Z,19.50
2018-01-15T01:05:52.147Z,19.03
2018-01-15T01:08:19.628Z,19.37
2018-01-15T01:10:47.091Z,19.57
2018-01-15T01:13:15.343Z,18.60
2018-01-15T01:15:42.814Z,18.47
2018-01-15T01:18:10.293Z,18.60
2018-01-15T01:20:38.539Z,23.03
2018-01-15T01:23:06.000Z,19.50
2018-01-15T01:25:33.474Z,19.27
2018-01-15T01:28:02.106Z,17.03
2018-01-15T01:30:29.575Z,21.40
2018-01-15T01:32:57.040Z,24.50
2018-01-15T01:35:24.522Z,20.57
2018-01-15T01:37:51.998Z,20.63
2018-01-15T01:40:20.233Z,19.63
2018-01-15T01:42:47.718Z,17.93
2018-01-15T01:45:15.179Z,19.00
2018-01-15T01:47:42.659Z,22.37
2018-01-15T01:50:10.891Z,19.20
2018-01-15T01:52:38.371Z,16.50
2018-01-15T01:55:05.918Z,20.70
2018-01-15T01:57:33.381Z,20.80
2018-01-15T02:00:00.875Z,23.17
2018-01-15T02:02:29.102Z,18.33
2018-01-15T02:04:56.586Z,18.60
2018-01-15T02:07:24.827Z,20.03
2018-01-15T02:09:52.318Z,18.37
2018-01-15T02:12:19.797Z,21.33
2018-01-15T02:14:47.292Z,21.50
2018-01-15T02:17:14.762Z,18.87
2018-01-15T02:19:42.241Z,21.37
2018-01-15T02:22:09.711Z,21.80
2018-01-15T02:24:37.966Z,22.90
2018-01-15T02:27:05.444Z,20.27
2018-01-15T02:29:33.686Z,26.27
2018-01-15T02:32:01.167Z,22.10
2018-01-15T02:34:28.653Z,24.42
2018-01-15T02:36:56.896Z,18.73
2018-01-15T02:39:24.377Z,18.57
2018-01-15T02:41:52.607Z,21.47
2018-01-15T02:44:20.086Z,21.50
2018-01-15T02:46:47.574Z,18.50
2018-01-15T02:49:15.823Z,18.60
2018-01-15T02:51:43.282Z,16.30
2018-01-15T02:54:10.762Z,18.70
2018-01-15T02:56:38.990Z,19.23
2018-01-15T02:59:06.462Z,20.47
2018-01-15T03:01:33.939Z,20.90
2018-01-15T03:04:01.405Z,18.50
2018-01-15T03:06:29.646Z,22.17
2018-01-15T03:08:57.130Z,19.73
2018-01-15T03:11:24.594Z,19.17
2018-01-15T03:13:52.074Z,19.70
2018-01-15T03:16:20.314Z,21.90
2018-01-15T03:18:47.805Z,20.33
2018-01-15T03:21:16.047Z,17.70
2018-01-15T03:23:44.291Z,16.33
2018-01-15T03:26:11.778Z,21.30
2018-01-15T03:28:39.258Z,15.13
2018-01-15T03:31:07.496Z,18.53
2018-01-15T03:33:34.978Z,17.27
2018-01-15T03:36:02.445Z,17.33
2018-01-15T03:38:30.706Z,21.77
2018-01-15T03:40:58.179Z,17.20
2018-01-15T03:43:25.669Z,17.70
2018-01-15T03:45:53.146Z,17.37
2018-01-15T03:48:20.635Z,19.60
2018-01-15T03:50:48.112Z,21.37
2018-01-15T03:53:15.612Z,20.83
2018-01-15T03:55:43.102Z,23.20
2018-01-15T03:58:10.560Z,23.93
2018-01-15T04:00:38.033Z,23.20
2018-01-15T04:03:05.506Z,21.67
2018-01-15T04:05:32.986Z,21.40
2018-01-15T04:08:01.221Z,22.13
2018-01-15T04:10:28.709Z,23.67
2018-01-15T04:12:56.945Z,25.93
2018-01-15T04:15:24.421Z,27.60
2018-01-15T04:17:51.902Z,23.43
2018-01-15T04:20:20.164Z,22.13
2018-01-15T04:22:47.647Z,22.10
2018-01-15T04:25:15.899Z,24.67
2018-01-15T04:27:44.434Z,21.97
2018-01-15T04:30:11.970Z,20.47
2018-01-15T04:32:39.522Z,19.50
2018-01-15T04:35:07.049Z,20.43
2018-01-15T04:37:34.562Z,18.50
2018-01-15T04:40:03.147Z,20.27
2018-01-15T04:42:30.660Z,15.10
2018-01-15T04:44:58.281Z,17.90
2018-01-15T04:47:25.806Z,14.30
2018-01-15T04:49:53.451Z,14.30
2018-01-15T04:52:21.090Z,14.80
2018-01-15T04:54:48.664Z,14.10
2018-01-15T04:57:16.276Z,16.70
2018-01-15T04:59:43.804Z,12.97
2018-01-15T05:02:12.256Z,13.50
2018-01-15T05:04:39.816Z,15.93
2018-01-15T05:07:07.416Z,17.10
2018-01-15T05:09:35.960Z,15.33
2018-01-15T05:12:03.515Z,15.00
2018-01-15T05:14:31.205Z,14.90
2018-01-15T05:16:59.629Z,15.57
2018-01-15T05:19:27.283Z,15.67
2018-01-15T05:21:54.913Z,16.00
2018-01-15T05:24:23.276Z,13.13
2018-01-15T05:26:50.807Z,12.53
2018-01-15T05:29:18.402Z,15.10
2018-01-15T05:31:45.919Z,13.47
2018-01-15T05:34:13.505Z,11.73
2018-01-15T05:36:41.035Z,13.23
2018-01-15T05:39:08.532Z,11.10
2018-01-15T05:41:36.029Z,13.80
2018-01-15T05:44:03.602Z,11.53
2018-01-15T05:46:31.224Z,11.00
2018-01-15T05:48:58.837Z,13.23
2018-01-15T05:51:26.432Z,13.10
2018-01-15T05:53:53.958Z,11.93
2018-01-15T05:56:21.523Z,10.70
2018-01-15T05:58:49.134Z,16.67
2018-01-15T06:01:17.413Z,11.73
2018-01-15T06:03:44.901Z,13.23
2018-01-15T06:06:12.378Z,11.70
2018-01-15T06:08:39.843Z,13.00
2018-01-15T06:11:07.322Z,12.20
2018-01-15T06:13:34.794Z,12.17
2018-01-15T06:16:03.040Z,12.23
2018-01-15T06:18:31.271Z,12.47
2018-01-15T06:20:58.757Z,14.50
2018-01-15T06:23:26.215Z,11.23
2018-01-15T06:25:53.683Z,14.43
2018-01-15T06:28:21.153Z,13.10
2018-01-15T06:30:48.634Z,12.37
2018-01-15T06:33:16.870Z,13.53
2018-01-15T06:35:44.353Z,15.17
2018-01-15T06:38:11.824Z,15.70
2018-01-15T06:40:40.074Z,14.70
2018-01-15T06:43:07.546Z,13.70
2018-01-15T06:45:35.032Z,14.60
2018-01-15T06:48:03.262Z,13.13
2018-01-15T06:50:30.742Z,16.50
2018-01-15T06:52:58.219Z,12.50
2018-01-15T06:55:26.467Z,13.83
2018-01-15T06:57:53.931Z,13.77
2018-01-15T07:00:21.417Z,14.23
2018-01-15T07:02:49.654Z,13.27
2018-01-15T07:05:17.131Z,14.03
2018-01-15T07:07:44.594Z,14.63
2018-01-15T07:10:12.845Z,13.73
2018-01-15T07:12:40.310Z,15.40
2018-01-15T07:15:07.802Z,14.23
2018-01-15T07:17:36.033Z,14.80
2018-01-15T07:20:03.517Z,13.57
2018-01-15T07:22:30.994Z,14.20
2018-01-15T07:24:59.245Z,15.87
2018-01-15T07:27:26.722Z,13.30
2018-01-15T07:29:54.977Z,14.30
2018-01-15T07:32:22.462Z,14.83
2018-01-15T07:34:50.694Z,13.67
2018-01-15T07:37:18.171Z,15.27
2018-01-15T07:39:45.649Z,15.17
2018-01-15T07:42:13.889Z,15.57
2018-01-15T07:44:41.375Z,18.53
2018-01-15T07:47:08.859Z,13.77
2018-01-15T07:49:36.351Z,17.77
2018-01-15T07:52:03.828Z,18.90
2018-01-15T07:54:31.297Z,16.30
2018-01-15T07:56:58.792Z,12.50
2018-01-15T07:59:26.255Z,15.63
2018-01-15T08:01:53.739Z,16.60
2018-01-15T08:04:21.215Z,14.23
2018-01-15T08:06:48.694Z,18.23
2018-01-15T08:09:16.153Z,12.67
2018-01-15T08:11:43.634Z,17.73
2018-01-15T08:14:11.096Z,13.53
2018-01-15T08:16:38.574Z,18.13
2018-01-15T08:19:06.044Z,16.10
2018-01-15T08:21:33.518Z,16.10
2018-01-15T08:24:00.990Z,17.40
2018-01-15T08:26:28.466Z,16.33
2018-01-15T08:28:56.693Z,14.43
2018-01-15T08:31:24.178Z,19.00
2018-01-15T08:33:51.641Z,18.43
2018-01-15T08:36:19.110Z,15.10
2018-01-15T08:38:46.574Z,18.50
2018-01-15T08:41:14.822Z,15.77
2018-01-15T08:43:42.287Z,17.27
2018-01-15T08:46:09.758Z,17.90
2018-01-15T08:48:37.236Z,17.43
2018-01-15T08:51:05.478Z,17.00
2018-01-15T08:53:32.954Z,19.07
2018-01-15T08:56:00.467Z,15.83
2018-01-15T08:58:27.938Z,16.93
2018-01-15T09:00:55.428Z,18.70
2018-01-15T09:03:22.899Z,18.07
2018-01-15T09:05:50.362Z,23.00
2018-01-15T09:08:18.585Z,13.80
2018-01-15T09:10:46.065Z,16.40
2018-01-15T09:13:13.545Z,13.60
2018-01-15T09:15:41.800Z,17.43
2018-01-15T09:18:09.257Z,13.70
2018-01-15T09:20:36.739Z,17.27
2018-01-15T09:23:04.968Z,16.17
2018-01-15T09:25:32.446Z,18.50
2018-01-15T09:27:59.934Z,17.60
2018-01-15T09:30:28.175Z,16.10
2018-01-15T09:32:55.653Z,18.20
2018-01-15T09:35:23.128Z,14.50
2018-01-15T09:37:51.396Z,16.00
2018-01-15T09:40:18.850Z,15.33
2018-01-15T09:42:47.082Z,16.20
2018-01-15T09:45:14.568Z,15.13
2018-01-15T09:47:42.029Z,16.47
2018-01-15T09:50:09.504Z,16.67
2018-01-15T09:52:37.744Z,13.43
2018-01-15T09:55:05.228Z,15.43
2018-01-15T09:57:32.705Z,13.63
2018-01-15T10:00:00.959Z,17.27
2018-01-15T10:02:28.431Z,12.77
2018-01-15T10:04:56.666Z,14.10
2018-01-15T10:07:24.150Z,15.10
2018-01-15T10:09:51.624Z,13.67
2018-01-15T10:12:19.873Z,14.67
2018-01-15T10:14:47.346Z,13.23
2018-01-15T10:17:14.826Z,11.33
2018-01-15T10:19:43.062Z,20.93
2018-01-15T10:22:10.549Z,13.30
2018-01-15T10:24:38.006Z,12.60
2018-01-15T10:27:05.492Z,15.20
2018-01-15T10:29:32.944Z,12.47
2018-01-15T10:32:00.423Z,13.60
2018-01-15T10:34:27.893Z,13.57
2018-01-15T10:36:56.185Z,13.50
2018-01-15T10:39:24.414Z,13.30
2018-01-15T10:41:51.906Z,16.30
2018-01-15T10:44:19.365Z,13.70
2018-01-15T10:46:46.850Z,11.90
2018-01-15T10:49:14.330Z,16.10
2018-01-15T10:51:41.793Z,13.47
2018-01-15T10:54:10.039Z,13.73
2018-01-15T10:56:37.518Z,13.90
2018-01-15T10:59:04.989Z,12.13
2018-01-15T11:01:33.240Z,11.80
2018-01-15T11:04:00.709Z,13.73
2018-01-15T11:06:28.945Z,13.73
2018-01-15T11:08:56.410Z,12.80
2018-01-15T11:11:23.901Z,20.13
2018-01-15T11:13:51.348Z,9.97
2018-01-15T11:16:18.836Z,12.60
2018-01-15T11:18:47.065Z,14.63
2018-01-15T11:21:14.544Z,12.80
2018-01-15T11:23:42.013Z,12.80
2018-01-15T11:26:09.492Z,14.53
2018-01-15T11:28:37.713Z,12.93
2018-01-15T11:31:05.200Z,13.97
2018-01-15T11:33:32.667Z,14.27
2018-01-15T11:36:00.914Z,10.83
2018-01-15T11:38:29.146Z,13.73
2018-01-15T11:40:56.627Z,15.10
2018-01-15T11:43:24.106Z,10.10
2018-01-15T11:45:51.568Z,12.70
2018-01-15T11:48:19.046Z,12.30
2018-01-15T11:50:46.515Z,11.13
2018-01-15T11:53:14.755Z,13.50
2018-01-15T11:55:42.229Z,9.73
2018-01-15T11:58:09.707Z,11.00
2018-01-15T12:00:37.939Z,10.30
2018-01-15T12:03:05.411Z,10.40
2018-01-15T12:05:33.651Z,11.87
2018-01-15T12:08:01.127Z,11.43
2018-01-15T12:10:28.590Z,15.67
2018-01-15T12:12:56.057Z,10.10
2018-01-15T12:15:24.289Z,15.50
2018-01-15T12:17:51.767Z,13.93
2018-01-15T12:20:19.235Z,14.57
2018-01-15T12:22:47.877Z,12.83
2018-01-15T12:25:15.358Z,14.70
2018-01-15T12:27:42.840Z,14.97
2018-01-15T12:30:10.307Z,14.67
2018-01-15T12:32:37.788Z,13.13
2018-01-15T12:35:05.265Z,14.83
2018-01-15T12:37:33.510Z,14.53
2018-01-15T12:40:00.981Z,17.03
2018-01-15T12:42:28.455Z,15.17
2018-01-15T12:44:56.702Z,12.27
2018-01-15T12:47:24.176Z,13.93
2018-01-15T12:49:51.650Z,16.00
2018-01-15T12:52:19.897Z,17.23
2018-01-15T12:54:47.372Z,12.93
2018-01-15T12:57:14.856Z,15.03
2018-01-15T12:59:42.315Z,13.37
2018-01-15T13:02:09.789Z,13.87
2018-01-15T13:04:37.272Z,13.23
2018-01-15T13:07:04.742Z,17.43
2018-01-15T13:09:32.216Z,17.77
2018-01-15T13:11:59.702Z,15.50
2018-01-15T13:14:27.938Z,12.70
2018-01-15T13:16:55.409Z,15.97
2018-01-15T13:19:22.896Z,17.90
2018-01-15T13:21:51.136Z,16.30
2018-01-15T13:24:18.609Z,16.90
2018-01-15T13:26:46.865Z,16.17
2018-01-15T13:29:14.347Z,16.53
2018-01-15T13:31:42.588Z,13.70
2018-01-15T13:34:10.066Z,15.20
2018-01-15T13:36:37.529Z,12.80
2018-01-15T13:39:05.011Z,11.70
2018-01-15T13:41:33.246Z,13.37
2018-01-15T13:44:00.719Z,13.40
2018-01-15T13:46:28.186Z,13.73
2018-01-15T13:48:55.649Z,15.10
2018-01-15T13:51:23.894Z,15.23
2018-01-15T13:53:51.365Z,18.97
2018-01-15T13:56:18.855Z,16.90
2018-01-15T13:58:46.308Z,17.50
2018-01-15T14:01:14.548Z,17.53
2018-01-15T14:03:42.799Z,14.27
2018-01-15T14:06:10.278Z,13.20
2018-01-15T14:08:37.763Z,17.17
2018-01-15T14:11:05.222Z,17.60
2018-01-15T14:13:32.709Z,14.93
2018-01-15T14:16:00.952Z,16.77
2018-01-15T14:18:28.417Z,17.70
2018-01-15T14:20:55.881Z,21.13
2018-01-15T14:23:24.120Z,18.50
2018-01-15T14:25:52.357Z,19.57
2018-01-15T14:28:19.839Z,18.60
2018-01-15T14:30:47.360Z,20.37
2018-01-15T14:33:14.810Z,18.80
2018-01-15T14:35:43.038Z,21.57
2018-01-15T14:38:10.513Z,18.83
2018-01-15T14:40:38.027Z,19.30
2018-01-15T14:43:05.505Z,17.73
2018-01-15T14:45:32.988Z,21.97
2018-01-15T14:48:00.478Z,17.20
2018-01-15T14:50:28.710Z,19.40
2018-01-15T14:52:56.191Z,17.60
2018-01-15T14:55:23.659Z,15.87
2018-01-15T14:57:51.138Z,21.10
2018-01-15T15:00:19.364Z,17.87
2018-01-15T15:02:46.847Z,17.13
2018-01-15T15:05:14.323Z,14.70
2018-01-15T15:07:42.563Z,25.83
2018-01-15T15:10:10.031Z,51.20
2018-01-15T15:12:37.514Z,40.87
2018-01-15T15:15:05.873Z,22.23
2018-01-15T15:17:33.222Z,24.30
2018-01-15T15:20:00.696Z,20.90
2018-01-15T15:22:28.177Z,22.50
2018-01-15T15:24:56.411Z,17.23
2018-01-15T15:27:23.890Z,18.33
2018-01-15T15:29:51.371Z,13.70
2018-01-15T15:32:19.600Z,13.00
2018-01-15T15:34:47.083Z,13.40
2018-01-15T15:37:14.559Z,13.70
2018-01-15T15:39:42.810Z,12.83
2018-01-15T15:42:10.285Z,14.53
2018-01-15T15:44:38.543Z,13.40
2018-01-15T15:47:06.014Z,12.60
2018-01-15T15:49:33.505Z,12.40
2018-01-15T15:52:00.964Z,13.83
2018-01-15T15:54:28.428Z,14.43
2018-01-15T15:56:55.898Z,15.13
2018-01-15T15:59:23.381Z,12.10
2018-01-15T16:01:50.861Z,12.90
2018-01-15T16:04:25.677Z,14.20
2018-01-15T16:06:53.151Z,9.43
2018-01-15T16:09:20.616Z,9.00
2018-01-15T16:11:48.845Z,8.33
2018-01-15T16:14:16.334Z,10.97
2018-01-15T16:16:43.794Z,10.50
2018-01-15T16:19:11.275Z,10.10
2018-01-15T16:21:39.509Z,10.60
2018-01-15T16:24:06.983Z,13.63
2018-01-15T16:26:34.463Z,11.20
2018-01-15T16:29:02.718Z,10.90
2018-01-15T16:31:30.181Z,12.20
2018-01-15T16:33:57.653Z,11.73
2018-01-15T16:36:25.879Z,9.70
2018-01-15T16:38:53.361Z,12.13
2018-01-15T16:41:20.836Z,11.50
2018-01-15T16:43:48.355Z,11.50
2018-01-15T16:46:15.836Z,11.77
2018-01-15T16:48:43.319Z,10.00
2018-01-15T16:51:11.556Z,11.10
2018-01-15T16:53:39.043Z,12.60
2018-01-15T16:56:06.510Z,11.70
2018-01-15T16:58:34.755Z,11.87
2018-01-15T17:01:02.226Z,16.57
2018-01-15T17:03:29.707Z,11.10
2018-01-15T17:05:57.157Z,13.03
2018-01-15T17:08:24.638Z,11.83
2018-01-15T17:10:52.118Z,11.10
2018-01-15T17:13:19.607Z,13.27
2018-01-15T17:15:47.065Z,11.97
2018-01-15T17:18:14.547Z,10.13
2018-01-15T17:20:42.019Z,12.77
2018-01-15T17:23:10.261Z,11.67
2018-01-15T17:25:37.725Z,11.23
2018-01-15T17:28:05.190Z,11.90
2018-01-15T17:30:32.668Z,11.50
2018-01-15T17:33:00.910Z,11.90
2018-01-15T17:35:28.398Z,11.17
2018-01-15T17:37:56.639Z,11.63
2018-01-15T17:40:24.106Z,10.20
2018-01-15T17:42:52.323Z,13.03
2018-01-15T17:45:20.566Z,11.90
2018-01-15T17:47:48.026Z,12.90
2018-01-15T17:50:15.513Z,11.60
2018-01-15T17:52:43.757Z,14.23
2018-01-15T17:55:11.246Z,11.43
2018-01-15T17:57:39.482Z,11.67
2018-01-15T18:00:06.953Z,10.67
2018-01-15T18:02:34.444Z,13.77
2018-01-15T18:05:02.694Z,13.73
2018-01-15T18:07:30.158Z,13.57
2018-01-15T18:09:57.655Z,11.80
2018-01-15T18:12:25.126Z,12.87
2018-01-15T18:14:52.598Z,11.77
2018-01-15T18:17:20.106Z,13.47
2018-01-15T18:19:48.378Z,14.33
2018-01-15T18:22:16.614Z,13.80
2018-01-15T18:24:44.866Z,13.57
2018-01-15T18:27:12.334Z,16.40
2018-01-15T18:29:39.811Z,16.67
2018-01-15T18:32:07.289Z,17.73
2018-01-15T18:34:34.766Z,16.73
2018-01-15T18:37:02.994Z,16.33
2018-01-15T18:39:30.481Z,14.70
2018-01-15T18:41:57.973Z,14.53
2018-01-15T18:44:26.225Z,21.37
2018-01-15T18:46:53.698Z,17.07
2018-01-15T18:49:21.988Z,14.37
2018-01-15T18:51:49.422Z,19.20
2018-01-15T18:54:17.678Z,19.30
2018-01-15T18:56:45.156Z,19.00
2018-01-15T18:59:13.402Z,16.53
2018-01-15T19:01:40.879Z,16.67
2018-01-15T19:04:08.369Z,16.47
2018-01-15T19:06:35.837Z,16.50
2018-01-15T19:09:03.325Z,14.37
2018-01-15T19:11:30.798Z,15.67
2018-01-15T19:13:59.042Z,17.60
2018-01-15T19:16:26.514Z,14.60
2018-01-15T19:18:53.994Z,15.80
2018-01-15T19:21:21.471Z,19.10
2018-01-15T19:23:48.954Z,17.83
2018-01-15T19:26:17.217Z,17.20
2018-01-15T19:28:45.459Z,18.53
2018-01-15T19:31:12.947Z,18.60
2018-01-15T19:33:41.191Z,17.77
2018-01-15T19:36:14.366Z,18.23
2018-01-15T19:38:41.834Z,16.97
2018-01-15T19:41:09.314Z,15.27
2018-01-15T19:43:42.522Z,17.57
2018-01-15T19:49:16.495Z,16.43
2018-01-15T19:51:49.665Z,18.20
2018-01-15T19:54:22.941Z,18.73
2018-01-15T19:59:57.686Z,12.40
2018-01-15T20:02:30.876Z,13.90
2018-01-15T20:05:04.084Z,11.87
2018-01-15T20:07:38.015Z,10.03
2018-01-15T20:10:11.195Z,11.27
2018-01-15T20:12:38.678Z,10.37
2018-01-15T20:15:06.165Z,12.17
2018-01-15T20:17:33.675Z,14.27
2018-01-15T20:20:01.136Z,10.43
2018-01-15T20:22:28.598Z,11.53
2018-01-15T20:24:56.079Z,10.50
2018-01-15T20:27:23.538Z,10.63
2018-01-15T20:29:51.019Z,9.30
2018-01-15T20:32:18.496Z,8.03
2018-01-15T20:34:45.954Z,8.57
2018-01-15T20:37:13.422Z,7.80
2018-01-15T20:39:41.667Z,7.10
2018-01-15T20:42:09.137Z,8.37
2018-01-15T20:44:36.608Z,5.93
2018-01-15T20:47:04.870Z,7.53
2018-01-15T20:49:32.357Z,9.30
2018-01-15T20:51:59.840Z,9.63
2018-01-15T20:54:27.311Z,7.87
2018-01-15T20:56:54.781Z,9.77
2018-01-15T20:59:22.250Z,9.03
2018-01-15T21:01:49.726Z,8.80
2018-01-15T21:04:17.174Z,8.60
2018-01-15T21:06:44.656Z,9.93
2018-01-15T21:09:12.882Z,7.33
2018-01-15T21:11:40.368Z,7.13
2018-01-15T21:14:07.830Z,9.70
2018-01-15T21:16:35.303Z,6.67
2018-01-15T21:19:03.529Z,6.00
2018-01-15T21:21:31.001Z,6.20
2018-01-15T21:23:58.452Z,4.80
2018-01-15T21:26:25.925Z,4.30
2018-01-15T21:28:53.402Z,3.93
2018-01-15T21:31:20.883Z,5.17
2018-01-15T21:33:49.101Z,3.77
2018-01-15T21:36:16.594Z,5.60
2018-01-15T21:38:44.050Z,3.33
2018-01-15T21:41:11.529Z,3.20
2018-01-15T21:43:39.748Z,4.80
2018-01-15T21:46:07.236Z,4.40
2018-01-15T21:48:34.694Z,3.00
2018-01-15T21:51:02.179Z,3.27
2018-01-15T21:53:30.399Z,3.03
2018-01-15T21:55:57.871Z,3.10
2018-01-15T21:58:25.331Z,3.20
2018-01-15T22:00:52.813Z,2.87
2018-01-15T22:03:20.283Z,2.63
2018-01-15T22:05:48.554Z,2.40
2018-01-15T22:08:16.787Z,3.10
2018-01-15T22:10:44.264Z,2.37
2018-01-15T22:13:11.720Z,3.00
2018-01-15T22:15:39.222Z,2.60
2018-01-15T22:18:06.700Z,1.97
2018-01-15T22:20:34.162Z,1.97
2018-01-15T22:23:01.647Z,2.50
2018-01-15T22:25:29.118Z,1.43
2018-01-15T22:27:56.604Z,1.83
2018-01-15T22:30:24.840Z,2.63
2018-01-15T22:32:52.316Z,2.30
2018-01-15T22:35:19.774Z,2.47
2018-01-15T22:37:47.252Z,2.00
2018-01-15T22:40:15.478Z,1.90
2018-01-15T22:42:42.941Z,1.70
2018-01-15T22:45:10.418Z,1.83
2018-01-15T22:47:37.898Z,1.67
2018-01-15T22:50:06.140Z,1.43
2018-01-15T22:52:33.602Z,1.33
2018-01-15T22:55:01.063Z,1.80
2018-01-15T22:57:28.539Z,1.40
2018-01-15T22:59:56.002Z,1.60
2018-01-15T23:02:23.479Z,1.53
2018-01-15T23:04:51.711Z,1.23
2018-01-15T23:07:19.177Z,1.10
2018-01-15T23:09:46.655Z,1.30
2018-01-15T23:12:14.126Z,1.20
2018-01-15T23:14:42.350Z,0.63
2018-01-15T23:17:09.834Z,1.27
2018-01-15T23:19:37.292Z,1.07
2018-01-15T23:22:04.762Z,1.20
2018-01-15T23:24:32.990Z,1.20
2018-01-15T23:27:00.466Z,1.23
2018-01-15T23:29:27.929Z,1.77
2018-01-15T23:31:55.396Z,1.80
2018-01-15T23:34:22.863Z,1.57
2018-01-15T23:36:50.324Z,2.03
2018-01-15T23:39:17.789Z,1.93
2018-01-15T23:41:46.025Z,2.40
2018-01-15T23:44:13.498Z,1.33
2018-01-15T23:46:40.970Z,1.20
2018-01-15T23:49:08.435Z,1.07
2018-01-15T23:51:35.918Z,1.30
2018-01-15T23:54:03.390Z,1.30
2018-01-15T23:56:30.853Z,1.30
2018-01-15T23:58:58.314Z,1.20
